Time;durP1;ratioP1;P1;durP2;ratioP2;P2;SDS_P1;SDS_P2;PMS_P1;PMS_P2;Temp;Humidity;BMP_temperature;BMP_pressure;BME280_temperature;BME280_humidity;BME280_pressure;Samples;Min_cycle;Max_cycle;Signal;HPM_P1;HPM_P2
2021/01/13 00:00:44;;;;;;;9.57;6.70;;;0.50;99.90;;;;;;4907049;28;20690;-73
2021/01/13 00:03:06;;;;;;;10.47;7.00;;;0.50;99.90;;;;;;4912091;28;21232;-74
2021/01/13 00:05:28;;;;;;;10.57;7.23;;;0.60;99.90;;;;;;4899834;28;20605;-74
2021/01/13 00:07:51;;;;;;;8.47;6.00;;;0.50;99.90;;;;;;4914291;28;20624;-74
2021/01/13 00:10:13;;;;;;;8.63;6.17;;;0.50;99.90;;;;;;4913865;28;20616;-74
2021/01/13 00:12:37;;;;;;;7.83;5.77;;;0.50;99.90;;;;;;4911056;28;20666;-74
2021/01/13 00:14:59;;;;;;;8.93;6.23;;;0.90;99.90;;;;;;4895877;28;20606;-75
2021/01/13 00:17:21;;;;;;;8.67;6.37;;;0.50;99.90;;;;;;4900923;28;21034;-75
2021/01/13 00:19:43;;;;;;;9.87;6.27;;;0.60;99.90;;;;;;4897317;28;21002;-74
2021/01/13 00:22:05;;;;;;;9.30;7.07;;;0.60;99.90;;;;;;4892819;28;20745;-73
2021/01/13 00:24:27;;;;;;;11.80;7.27;;;0.60;99.90;;;;;;4898689;28;20614;-74
2021/01/13 00:26:49;;;;;;;8.90;5.90;;;0.70;99.90;;;;;;4895826;28;20578;-74
2021/01/13 00:29:14;;;;;;;8.33;5.73;;;0.70;99.90;;;;;;4900139;28;20698;-75
2021/01/13 00:31:36;;;;;;;8.37;5.37;;;0.80;99.90;;;;;;4910317;28;20593;-75
2021/01/13 00:33:58;;;;;;;11.20;6.37;;;0.60;99.90;;;;;;4895403;28;20622;-74
2021/01/13 00:36:22;;;;;;;10.50;6.77;;;0.60;99.90;;;;;;4901526;28;20254;-74
2021/01/13 00:38:44;;;;;;;10.73;7.30;;;0.70;99.90;;;;;;4900651;28;20609;-76
2021/01/13 00:41:06;;;;;;;9.30;6.37;;;0.70;99.90;;;;;;4895196;28;20839;-75
2021/01/13 00:43:28;;;;;;;10.03;6.00;;;0.70;99.90;;;;;;4885880;28;20629;-74
2021/01/13 00:45:51;;;;;;;9.97;5.73;;;0.70;99.90;;;;;;4912501;28;20658;-74
2021/01/13 00:48:13;;;;;;;10.27;5.80;;;0.70;99.90;;;;;;4892143;28;20719;-74
2021/01/13 00:50:35;;;;;;;8.10;5.30;;;0.80;99.90;;;;;;4897817;28;20743;-76
2021/01/13 00:52:57;;;;;;;7.50;5.40;;;0.70;99.90;;;;;;4909793;28;20188;-74
2021/01/13 00:55:20;;;;;;;7.17;5.63;;;0.70;99.90;;;;;;4905571;28;20602;-74
2021/01/13 00:57:45;;;;;;;9.87;5.67;;;0.70;99.90;;;;;;4893538;28;20728;-76
2021/01/13 01:00:08;;;;;;;9.47;5.43;;;0.60;99.90;;;;;;4909253;28;20613;-75
2021/01/13 01:02:31;;;;;;;7.17;4.80;;;0.70;99.90;;;;;;4911827;28;21279;-74
2021/01/13 01:04:54;;;;;;;7.63;4.83;;;0.60;99.90;;;;;;4908769;28;20613;-74
2021/01/13 01:07:16;;;;;;;7.57;5.60;;;0.70;99.90;;;;;;4899195;28;20179;-75
2021/01/13 01:09:38;;;;;;;8.20;5.00;;;0.50;99.90;;;;;;4913344;28;20592;-74
2021/01/13 01:12:00;;;;;;;8.00;5.23;;;1.20;99.90;;;;;;4913252;28;20647;-73
2021/01/13 01:14:22;;;;;;;7.83;5.60;;;0.40;99.90;;;;;;4912353;28;20214;-75
2021/01/13 01:16:44;;;;;;;7.10;5.37;;;0.30;99.90;;;;;;4913097;28;20697;-73
2021/01/13 01:19:09;;;;;;;6.67;5.43;;;0.20;99.90;;;;;;4906083;28;20608;-75
2021/01/13 01:21:31;;;;;;;10.03;6.37;;;0.10;99.90;;;;;;4894761;28;20703;-74
2021/01/13 01:23:53;;;;;;;11.60;6.40;;;0.10;99.90;;;;;;4905981;28;20670;-73
2021/01/13 01:26:15;;;;;;;10.17;5.77;;;0.30;99.90;;;;;;4913044;28;21013;-73
2021/01/13 01:28:37;;;;;;;8.13;5.53;;;0.00;99.90;;;;;;4911877;28;21270;-73
2021/01/13 01:31:00;;;;;;;7.73;5.60;;;0.10;99.90;;;;;;4893148;28;20630;-74
2021/01/13 01:33:22;;;;;;;7.73;5.43;;;-0.20;99.90;;;;;;4907626;28;20628;-75
2021/01/13 01:35:45;;;;;;;9.73;6.10;;;-0.30;99.90;;;;;;4903400;28;20663;-74
2021/01/13 01:38:07;;;;;;;8.27;5.40;;;-0.30;99.90;;;;;;4893156;28;20655;-73
2021/01/13 01:40:29;;;;;;;7.67;5.17;;;-0.20;99.90;;;;;;4898542;28;20621;-74
2021/01/13 01:42:53;;;;;;;7.13;5.30;;;-0.20;99.90;;;;;;4908977;28;20652;-74
2021/01/13 01:45:18;;;;;;;7.87;5.40;;;-0.20;99.90;;;;;;4903504;28;21085;-76
2021/01/13 01:48:10;;;;;;;7.77;5.20;;;-0.20;99.90;;;;;;4896476;28;20179;-75
2021/01/13 01:50:34;;;;;;;8.50;5.50;;;-0.20;99.90;;;;;;4867071;28;20661;-75
2021/01/13 01:53:12;;;;;;;6.90;4.77;;;-0.20;99.90;;;;;;4906910;28;20594;-73
2021/01/13 01:55:42;;;;;;;7.90;4.67;;;-0.30;99.90;;;;;;4904431;28;21222;-73
2021/01/13 01:58:10;;;;;;;8.40;4.77;;;-0.30;99.90;;;;;;4910195;28;20617;-75
2021/01/13 02:00:34;;;;;;;7.90;4.50;;;-0.30;99.90;;;;;;4896314;28;20633;-73
2021/01/13 02:03:06;;;;;;;8.17;4.87;;;-0.30;99.90;;;;;;4912198;28;20746;-72
2021/01/13 02:05:31;;;;;;;8.17;4.73;;;-0.30;99.90;;;;;;4914308;28;21054;-73
2021/01/13 02:08:00;;;;;;;9.10;5.50;;;-0.30;99.90;;;;;;4912800;28;20669;-74
2021/01/13 02:10:24;;;;;;;7.83;5.30;;;-0.30;99.90;;;;;;4898149;28;20573;-74
2021/01/13 02:12:52;;;;;;;8.27;5.50;;;-0.30;99.90;;;;;;4881897;28;20634;-75
2021/01/13 02:15:15;;;;;;;10.90;5.07;;;-0.30;99.90;;;;;;4906480;28;21305;-74
2021/01/13 02:17:38;;;;;;;8.27;5.30;;;-0.30;99.90;;;;;;4916646;28;20612;-74
2021/01/13 02:20:19;;;;;;;7.23;4.73;;;-0.30;99.90;;;;;;4910598;28;20605;-74
2021/01/13 02:22:54;;;;;;;7.10;4.50;;;-0.20;99.90;;;;;;4915761;28;20621;-74
2021/01/13 02:26:05;;;;;;;5.50;3.83;;;-0.20;99.90;;;;;;4912492;28;20636;-74
2021/01/13 02:28:30;;;;;;;6.97;5.00;;;-0.20;99.90;;;;;;4908143;28;20690;-74
2021/01/13 02:31:13;;;;;;;6.97;4.40;;;-0.20;99.90;;;;;;4896399;28;20695;-79
2021/01/13 02:33:41;;;;;;;7.20;4.60;;;-0.10;99.90;;;;;;4899247;28;21137;-74
2021/01/13 02:36:15;;;;;;;6.33;4.40;;;-0.10;99.90;;;;;;4906556;28;20673;-74
2021/01/13 02:38:38;;;;;;;7.00;5.20;;;-0.10;99.90;;;;;;4917590;28;20573;-75
2021/01/13 02:41:00;;;;;;;7.87;5.60;;;-0.10;99.90;;;;;;4915852;28;21245;-76
2021/01/13 02:43:23;;;;;;;7.03;5.70;;;-0.10;99.90;;;;;;4917005;28;21049;-74
2021/01/13 02:45:47;;;;;;;10.43;6.67;;;0.10;99.90;;;;;;4904217;28;20682;-75
2021/01/13 02:48:20;;;;;;;11.70;8.80;;;0.00;99.90;;;;;;4911826;28;20674;-75
2021/01/13 02:50:56;;;;;;;13.67;9.57;;;0.00;99.90;;;;;;4906949;28;20581;-74
2021/01/13 02:53:48;;;;;;;13.67;8.70;;;0.10;99.90;;;;;;4914939;28;21572;-74
2021/01/13 02:56:32;;;;;;;15.63;10.63;;;0.20;99.90;;;;;;4904561;28;20653;-74
2021/01/13 02:59:05;;;;;;;18.43;10.33;;;0.00;99.90;;;;;;4898516;28;20592;-74
2021/01/13 03:01:30;;;;;;;15.37;9.73;;;0.10;99.90;;;;;;4896105;28;20609;-73
2021/01/13 03:03:55;;;;;;;13.27;9.63;;;0.00;99.90;;;;;;4913798;28;21204;-76
2021/01/13 03:06:17;;;;;;;15.97;11.13;;;0.00;99.90;;;;;;4907981;28;20605;-74
2021/01/13 03:08:48;;;;;;;12.03;9.80;;;0.10;99.90;;;;;;4896926;28;20618;-74
2021/01/13 03:11:15;;;;;;;14.27;9.77;;;0.00;99.90;;;;;;4902610;28;21024;-75
2021/01/13 03:13:44;;;;;;;10.07;7.70;;;0.10;99.90;;;;;;4908860;28;21172;-75
2021/01/13 03:16:07;;;;;;;9.37;7.30;;;0.10;99.90;;;;;;4904586;28;20632;-74
2021/01/13 03:18:42;;;;;;;9.90;7.70;;;0.10;99.90;;;;;;4914849;28;20737;-75
2021/01/13 03:21:09;;;;;;;11.93;7.53;;;0.10;99.90;;;;;;4917668;28;20580;-75
2021/01/13 03:23:45;;;;;;;9.00;6.67;;;0.20;99.90;;;;;;4916782;28;20685;-75
2021/01/13 03:26:08;;;;;;;9.57;6.70;;;0.10;99.90;;;;;;4895020;28;20608;-74
2021/01/13 03:28:33;;;;;;;9.00;6.30;;;0.20;99.90;;;;;;4916555;28;21168;-74
2021/01/13 03:30:57;;;;;;;9.03;5.90;;;0.20;99.90;;;;;;4912483;28;20645;-75
2021/01/13 03:33:53;;;;;;;6.50;5.33;;;0.20;99.90;;;;;;4916569;28;20613;-73
2021/01/13 03:36:29;;;;;;;9.27;6.27;;;0.30;99.90;;;;;;4901864;28;20630;-75
2021/01/13 03:39:04;;;;;;;9.00;5.97;;;0.20;99.90;;;;;;4915192;28;20642;-75
2021/01/13 03:41:39;;;;;;;8.43;6.47;;;0.30;99.90;;;;;;4904361;28;20668;-74
2021/01/13 03:44:08;;;;;;;11.50;5.97;;;0.30;99.90;;;;;;4913755;28;20659;-76
2021/01/13 03:46:31;;;;;;;10.30;7.00;;;0.30;99.90;;;;;;4902416;28;20632;-74
2021/01/13 03:49:01;;;;;;;10.03;6.73;;;0.30;99.90;;;;;;4914135;28;20663;-74
2021/01/13 03:51:49;;;;;;;8.87;6.83;;;0.30;99.90;;;;;;4914657;28;20772;-74
2021/01/13 03:54:12;;;;;;;8.63;6.47;;;0.30;99.90;;;;;;4915096;28;20618;-78
2021/01/13 03:56:49;;;;;;;8.57;6.40;;;0.30;99.90;;;;;;4907324;28;20996;-74
2021/01/13 03:59:20;;;;;;;10.10;6.97;;;0.30;99.90;;;;;;4905017;28;20584;-77
2021/01/13 04:01:52;;;;;;;7.33;6.50;;;0.50;99.90;;;;;;4902328;28;20643;-74
2021/01/13 04:04:39;;;;;;;9.73;7.07;;;0.30;99.90;;;;;;4898698;28;20606;-73
2021/01/13 04:07:03;;;;;;;9.53;6.80;;;0.40;99.90;;;;;;4902647;28;20581;-75
2021/01/13 04:09:26;;;;;;;8.90;6.30;;;0.40;99.90;;;;;;4898930;28;21041;-75
2021/01/13 04:11:50;;;;;;;8.17;6.53;;;-1.60;99.90;;;;;;4914481;28;21508;-73
2021/01/13 04:14:18;;;;;;;9.73;6.50;;;0.40;99.90;;;;;;4896787;28;21194;-79
2021/01/13 04:16:40;;;;;;;10.23;6.23;;;0.40;99.90;;;;;;4894739;28;20696;-75
2021/01/13 04:19:04;;;;;;;9.73;6.63;;;0.30;99.90;;;;;;4915608;28;20626;-74
2021/01/13 04:21:27;;;;;;;10.63;6.17;;;0.30;99.90;;;;;;4904582;28;20659;-74
2021/01/13 04:23:56;;;;;;;9.20;6.47;;;0.40;99.90;;;;;;4912966;28;20652;-74
2021/01/13 04:26:19;;;;;;;9.50;6.43;;;0.40;99.90;;;;;;4907000;28;21185;-74
2021/01/13 04:28:42;;;;;;;9.77;6.40;;;0.40;99.90;;;;;;4896792;28;20638;-76
2021/01/13 04:31:05;;;;;;;8.47;6.17;;;0.40;99.90;;;;;;4900848;28;20920;-74
2021/01/13 04:33:27;;;;;;;8.67;6.17;;;0.40;99.90;;;;;;4914358;28;20635;-73
2021/01/13 04:35:51;;;;;;;8.50;5.77;;;0.30;99.90;;;;;;4914048;28;20628;-75
2021/01/13 04:38:20;;;;;;;8.50;5.13;;;0.40;99.90;;;;;;4916314;28;21177;-74
2021/01/13 04:40:50;;;;;;;8.70;4.60;;;0.40;99.90;;;;;;4895287;28;20660;-76
2021/01/13 04:43:13;;;;;;;6.37;4.70;;;0.40;99.90;;;;;;4898265;28;20699;-75
2021/01/13 04:45:38;;;;;;;5.80;4.80;;;0.40;99.90;;;;;;4895309;28;20671;-75
2021/01/13 04:48:06;;;;;;;8.27;4.73;;;0.40;99.90;;;;;;4914469;28;20581;-75
2021/01/13 04:50:35;;;;;;;7.60;4.73;;;0.40;99.90;;;;;;4912230;28;20612;-75
2021/01/13 04:52:59;;;;;;;6.57;4.70;;;0.30;99.90;;;;;;4895643;28;20610;-75
2021/01/13 04:55:26;;;;;;;6.10;4.30;;;0.30;99.90;;;;;;4898050;28;21227;-74
2021/01/13 04:58:34;;;;;;;7.57;4.73;;;0.30;99.90;;;;;;4927337;28;20704;-74
2021/01/13 05:01:11;;;;;;;6.73;4.17;;;0.30;99.90;;;;;;4896020;28;20679;-75
2021/01/13 05:03:50;;;;;;;5.57;3.30;;;0.20;99.90;;;;;;4909743;28;20655;-74
2021/01/13 05:06:47;;;;;;;4.37;3.13;;;0.20;99.90;;;;;;4896897;28;20637;-75
2021/01/13 05:09:11;;;;;;;4.10;2.60;;;0.20;99.90;;;;;;4915863;28;20611;-73
2021/01/13 05:11:40;;;;;;;3.27;2.40;;;0.10;96.50;;;;;;4915112;28;21024;-73
2021/01/13 05:14:04;;;;;;;2.83;2.17;;;-0.10;74.00;;;;;;4903493;28;20659;-73
2021/01/13 05:16:28;;;;;;;4.07;2.37;;;-0.10;73.10;;;;;;4912717;28;20637;-74
2021/01/13 05:18:55;;;;;;;4.37;2.90;;;-0.30;71.50;;;;;;4909590;28;20629;-74
2021/01/13 05:21:18;;;;;;;4.27;2.53;;;-0.30;72.60;;;;;;4901170;28;20607;-74
2021/01/13 05:23:45;;;;;;;3.77;2.30;;;-0.50;74.80;;;;;;4894900;28;20687;-74
2021/01/13 05:26:09;;;;;;;6.03;2.73;;;-0.60;76.90;;;;;;4896762;28;20605;-75
2021/01/13 05:28:45;;;;;;;5.30;3.20;;;-0.70;79.30;;;;;;4878334;28;20660;-74
2021/01/13 05:31:12;;;;;;;6.60;3.37;;;-0.70;84.10;;;;;;4907130;28;20732;-73
2021/01/13 05:33:35;;;;;;;4.83;3.10;;;-0.80;87.90;;;;;;4891921;28;20624;-74
2021/01/13 05:35:59;;;;;;;4.83;2.50;;;-0.70;86.50;;;;;;4896520;28;20652;-73
2021/01/13 05:39:00;;;;;;;4.73;2.30;;;-0.70;85.50;;;;;;4896007;28;20668;-73
2021/01/13 05:41:22;;;;;;;6.30;2.50;;;-0.70;82.40;;;;;;4891861;28;20687;-74
2021/01/13 05:43:46;;;;;;;4.47;2.57;;;-0.70;79.60;;;;;;4898953;28;20675;-74
2021/01/13 05:46:11;;;;;;;5.63;3.50;;;-0.90;75.50;;;;;;4896124;28;20622;-74
2021/01/13 05:48:40;;;;;;;4.70;2.97;;;-0.90;76.90;;;;;;4915350;28;21110;-74
2021/01/13 05:51:02;;;;;;;7.40;3.50;;;-0.90;81.40;;;;;;4898018;28;20659;-74
2021/01/13 05:53:26;;;;;;;5.27;3.50;;;-1.00;85.30;;;;;;4895931;28;20640;-76
2021/01/13 05:55:50;;;;;;;5.87;3.67;;;-1.00;88.90;;;;;;4910441;28;21499;-74
2021/01/13 05:58:12;;;;;;;6.43;3.97;;;-1.10;88.50;;;;;;4915187;28;20580;-75
2021/01/13 06:00:35;;;;;;;4.97;3.03;;;-1.10;88.20;;;;;;4898200;28;20660;-74
2021/01/13 06:02:59;;;;;;;6.47;4.10;;;-1.10;90.00;;;;;;4913306;28;20627;-75
2021/01/13 06:05:22;;;;;;;5.20;3.60;;;-1.20;91.40;;;;;;4901607;28;20605;-73
2021/01/13 06:07:51;;;;;;;15.93;7.33;;;-1.10;93.40;;;;;;4913616;28;20625;-75
2021/01/13 06:10:13;;;;;;;9.23;4.70;;;-1.00;95.00;;;;;;4913493;28;20655;-74
2021/01/13 06:12:41;;;;;;;9.53;5.07;;;-0.90;96.30;;;;;;4911981;28;20616;-75
2021/01/13 06:15:09;;;;;;;8.40;4.63;;;-0.80;95.70;;;;;;4899578;28;20987;-74
2021/01/13 06:17:31;;;;;;;6.37;4.00;;;-0.80;95.30;;;;;;4898999;28;20636;-73
2021/01/13 06:19:56;;;;;;;6.90;4.43;;;-0.80;93.80;;;;;;4895364;28;20651;-74
2021/01/13 06:22:28;;;;;;;8.10;4.90;;;-0.80;94.10;;;;;;4911661;28;21276;-73
2021/01/13 06:24:51;;;;;;;8.70;4.80;;;-0.80;94.20;;;;;;4909747;28;20649;-75
2021/01/13 06:27:18;;;;;;;7.37;5.40;;;-0.70;95.40;;;;;;4894991;28;20686;-75
2021/01/13 06:29:46;;;;;;;7.87;4.50;;;-0.60;95.50;;;;;;4896395;28;21125;-75
2021/01/13 06:32:28;;;;;;;8.10;4.13;;;-0.60;93.40;;;;;;4905733;28;21102;-74
2021/01/13 06:35:03;;;;;;;10.20;5.40;;;-0.60;93.30;;;;;;4912684;28;21278;-75
2021/01/13 06:37:36;;;;;;;4.97;3.43;;;-0.60;93.30;;;;;;4903317;28;21048;-74
2021/01/13 06:40:00;;;;;;;5.17;3.10;;;-0.50;92.50;;;;;;4916095;28;20634;-74
2021/01/13 06:42:29;;;;;;;6.43;3.70;;;-0.60;89.70;;;;;;4913219;28;21150;-74
2021/01/13 06:44:52;;;;;;;6.47;4.00;;;-0.70;90.50;;;;;;4907763;28;20624;-75
2021/01/13 06:47:14;;;;;;;6.97;3.73;;;-0.70;92.20;;;;;;4904734;28;20659;-74
2021/01/13 06:49:36;;;;;;;7.77;4.93;;;-0.60;92.20;;;;;;4899245;28;20658;-74
2021/01/13 06:52:00;;;;;;;4.77;3.43;;;-0.60;91.60;;;;;;4916908;28;20628;-75
2021/01/13 06:54:22;;;;;;;6.13;3.50;;;-0.50;92.50;;;;;;4917320;28;20942;-74
2021/01/13 06:56:49;;;;;;;6.97;3.60;;;-0.50;92.80;;;;;;4905983;28;20665;-74
2021/01/13 06:59:12;;;;;;;10.57;4.90;;;-0.50;92.00;;;;;;4899388;28;20625;-76
2021/01/13 07:01:48;;;;;;;7.40;5.50;;;-0.40;92.10;;;;;;4901809;28;20624;-74
2021/01/13 07:04:11;;;;;;;9.20;5.33;;;-0.40;93.50;;;;;;4906776;28;20625;-74
2021/01/13 07:06:33;;;;;;;7.50;5.70;;;-0.40;91.70;;;;;;4910610;28;20601;-74
2021/01/13 07:08:57;;;;;;;6.90;5.20;;;-0.40;91.70;;;;;;4890453;28;20630;-75
2021/01/13 07:11:20;;;;;;;6.60;4.00;;;-0.40;90.20;;;;;;4887332;28;20618;-74
2021/01/13 07:13:49;;;;;;;9.10;4.60;;;-0.40;89.30;;;;;;4887516;28;20670;-75
2021/01/13 07:16:15;;;;;;;6.63;4.27;;;-0.40;90.40;;;;;;4914415;28;20660;-74
2021/01/13 07:18:37;;;;;;;5.30;3.53;;;-0.40;91.60;;;;;;4915917;28;21188;-75
2021/01/13 07:21:06;;;;;;;7.60;3.63;;;-0.30;93.00;;;;;;4913849;28;20662;-74
2021/01/13 07:23:28;;;;;;;5.37;3.70;;;-0.40;93.10;;;;;;4907421;28;20690;-74
2021/01/13 07:25:51;;;;;;;4.80;3.40;;;-0.30;93.40;;;;;;4915717;28;20624;-74
2021/01/13 07:28:13;;;;;;;6.73;3.80;;;-0.30;94.30;;;;;;4906277;28;21165;-74
2021/01/13 07:30:36;;;;;;;6.60;4.20;;;-0.20;93.10;;;;;;4876941;28;21175;-74
2021/01/13 07:32:59;;;;;;;6.10;5.00;;;0.40;91.60;;;;;;4873638;28;21287;-76
2021/01/13 07:35:29;;;;;;;9.07;5.93;;;-0.10;88.70;;;;;;4882764;28;20945;-75
2021/01/13 07:37:55;;;;;;;10.93;6.10;;;-0.10;88.20;;;;;;4895856;28;20606;-74
2021/01/13 07:40:33;;;;;;;7.47;5.17;;;0.00;88.10;;;;;;4892728;28;20614;-74
2021/01/13 07:43:04;;;;;;;7.93;6.10;;;0.10;88.70;;;;;;4891175;28;20652;-75
2021/01/13 07:45:30;;;;;;;8.40;5.47;;;0.10;78.80;;;;;;4876858;28;20700;-76
2021/01/13 07:48:22;;;;;;;10.03;5.80;;;0.20;71.40;;;;;;4895139;28;20626;-74
2021/01/13 07:50:46;;;;;;;8.63;6.10;;;0.20;64.80;;;;;;4895593;28;20675;-75
2021/01/13 07:53:10;;;;;;;11.13;6.70;;;0.20;62.20;;;;;;4896238;28;20647;-75
2021/01/13 07:55:36;;;;;;;6.87;4.23;;;0.20;60.00;;;;;;4897493;28;20952;-74
2021/01/13 07:58:03;;;;;;;7.07;5.40;;;0.30;57.90;;;;;;4897379;28;20594;-75
2021/01/13 08:00:27;;;;;;;8.37;5.37;;;0.30;58.00;;;;;;4895815;28;20616;-75
2021/01/13 08:03:28;;;;;;;10.27;6.03;;;0.20;58.20;;;;;;4895713;28;20622;-74
2021/01/13 08:06:28;;;;;;;14.33;8.10;;;0.20;64.90;;;;;;4866284;28;20664;-75
2021/01/13 08:09:09;;;;;;;13.40;7.77;;;0.20;66.90;;;;;;4896182;28;20626;-74
2021/01/13 08:11:55;;;;;;;10.00;6.27;;;0.20;73.80;;;;;;4896785;28;20562;-74
2021/01/13 08:14:47;;;;;;;11.17;6.63;;;0.20;77.40;;;;;;4897181;28;20601;-75
2021/01/13 08:17:27;;;;;;;10.40;6.30;;;0.30;80.80;;;;;;4895668;28;20633;-75
2021/01/13 08:20:28;;;;;;;11.43;8.43;;;0.50;73.50;;;;;;4878243;28;20590;-74
2021/01/13 08:23:02;;;;;;;15.27;10.30;;;0.50;65.80;;;;;;4857394;28;20631;-74
2021/01/13 08:25:28;;;;;;;17.93;10.97;;;0.60;46.70;;;;;;4875344;28;20637;-75
2021/01/13 08:27:57;;;;;;;14.30;9.63;;;0.60;46.00;;;;;;4871889;28;21154;-75
2021/01/13 08:30:26;;;;;;;14.33;9.47;;;0.60;41.60;;;;;;4912443;28;20641;-74
2021/01/13 08:32:50;;;;;;;14.77;9.20;;;0.50;41.40;;;;;;4914286;28;20665;-74
2021/01/13 08:35:13;;;;;;;14.07;8.77;;;0.50;38.60;;;;;;4895562;28;20625;-78
2021/01/13 08:37:38;;;;;;;12.50;8.23;;;0.60;41.60;;;;;;4895826;28;20614;-77
2021/01/13 08:40:15;;;;;;;14.43;9.00;;;0.70;47.20;;;;;;4897572;28;20613;-77
2021/01/13 08:42:38;;;;;;;14.50;8.97;;;0.80;41.40;;;;;;4895993;28;21005;-75
2021/01/13 08:45:01;;;;;;;14.80;9.03;;;0.90;23.80;;;;;;4907613;28;21205;-76
2021/01/13 08:47:25;;;;;;;14.20;8.83;;;1.00;28.70;;;;;;4913507;28;21157;-76
2021/01/13 08:49:48;;;;;;;16.47;9.10;;;1.10;20.30;;;;;;4903932;28;20617;-80
2021/01/13 08:52:22;;;;;;;15.70;8.97;;;1.10;12.70;;;;;;4913237;28;21044;-76
2021/01/13 08:54:46;;;;;;;15.20;9.60;;;1.10;2.50;;;;;;4904671;28;20718;-74
2021/01/13 08:57:10;;;;;;;13.00;8.17;;;1.10;2.80;;;;;;4893939;28;21050;-75
2021/01/13 08:59:35;;;;;;;11.83;7.50;;;1.10;12.40;;;;;;4910611;28;20666;-75
2021/01/13 09:02:05;;;;;;;11.00;7.33;;;1.10;15.70;;;;;;4895428;28;20234;-76
2021/01/13 09:04:45;;;;;;;13.70;7.23;;;1.10;1.00;;;;;;4893207;28;20637;-77
2021/01/13 09:07:10;;;;;;;15.23;7.70;;;1.10;1.00;;;;;;4896222;28;20949;-75
2021/01/13 09:09:36;;;;;;;19.43;9.27;;;1.00;2.70;;;;;;4901436;28;21004;-75
2021/01/13 09:11:59;;;;;;;12.90;8.77;;;1.00;15.00;;;;;;4889264;28;21047;-77
2021/01/13 09:14:22;;;;;;;22.43;15.33;;;1.00;19.00;;;;;;4908986;28;20675;-76
2021/01/13 09:16:50;;;;;;;20.77;11.97;;;1.10;22.60;;;;;;4914242;28;20640;-75
2021/01/13 09:19:13;;;;;;;20.90;10.13;;;1.10;10.80;;;;;;4893621;28;21030;-79
2021/01/13 09:21:38;;;;;;;17.03;11.83;;;1.20;11.70;;;;;;4908051;28;20286;-75
2021/01/13 09:24:01;;;;;;;18.53;13.33;;;1.20;14.20;;;;;;4895094;28;20634;-76
2021/01/13 09:26:31;;;;;;;16.93;9.70;;;1.20;1.00;;;;;;4891108;28;20193;-74
2021/01/13 09:28:59;;;;;;;14.53;9.20;;;1.10;1.00;;;;;;4895291;28;20634;-74
2021/01/13 09:31:21;;;;;;;13.03;8.83;;;1.10;1.00;;;;;;4896712;28;20196;-75
2021/01/13 09:33:43;;;;;;;15.47;8.60;;;1.10;1.00;;;;;;4894392;28;20629;-77
2021/01/13 09:36:06;;;;;;;13.27;8.73;;;1.20;1.00;;;;;;4892895;28;20629;-74
2021/01/13 09:38:31;;;;;;;15.90;9.00;;;1.20;1.00;;;;;;4897185;28;21257;-76
2021/01/13 09:40:56;;;;;;;13.77;8.77;;;1.30;4.60;;;;;;4902708;28;20189;-78
2021/01/13 09:43:26;;;;;;;12.53;7.50;;;1.40;1.20;;;;;;4894678;28;20626;-76
2021/01/13 09:45:49;;;;;;;14.17;8.30;;;1.50;14.80;;;;;;4910053;28;20192;-76
2021/01/13 09:48:16;;;;;;;15.10;8.97;;;1.60;1.00;;;;;;4902441;28;20208;-76
2021/01/13 09:50:39;;;;;;;13.27;8.93;;;1.70;1.00;;;;;;4913071;28;20293;-76
2021/01/13 09:53:04;;;;;;;18.60;8.97;;;1.70;1.00;;;;;;4902005;28;20234;-76
2021/01/13 09:55:29;;;;;;;15.43;9.53;;;1.80;1.00;;;;;;4910481;28;20200;-76
2021/01/13 09:58:13;;;;;;;12.83;7.83;;;1.80;1.00;;;;;;4901626;28;20242;-77
2021/01/13 10:00:37;;;;;;;14.53;7.70;;;1.80;1.00;;;;;;4898766;28;20626;-75
2021/01/13 10:03:01;;;;;;;13.87;7.30;;;1.70;1.00;;;;;;4905206;28;20235;-76
2021/01/13 10:05:25;;;;;;;12.10;7.43;;;1.60;1.00;;;;;;4908502;28;20298;-75
2021/01/13 10:07:51;;;;;;;14.03;7.80;;;1.70;1.00;;;;;;4894405;28;20189;-79
2021/01/13 10:10:23;;;;;;;12.87;7.50;;;1.60;1.00;;;;;;4901714;28;20645;-75
2021/01/13 10:12:49;;;;;;;13.77;7.80;;;1.60;1.00;;;;;;4916283;28;20196;-75
2021/01/13 10:15:13;;;;;;;16.20;7.17;;;1.60;1.00;;;;;;4917540;28;21047;-77
2021/01/13 10:17:36;;;;;;;12.70;6.33;;;1.60;1.00;;;;;;4915947;28;20596;-75
2021/01/13 10:20:10;;;;;;;9.93;5.70;;;1.50;1.00;;;;;;4917399;28;20188;-75
2021/01/13 10:22:32;;;;;;;9.30;5.97;;;1.40;6.50;;;;;;4899980;28;20203;-75
2021/01/13 10:24:54;;;;;;;12.67;8.13;;;1.80;14.60;;;;;;4903728;28;20209;-75
2021/01/13 10:27:18;;;;;;;13.27;6.97;;;1.60;21.90;;;;;;4896666;28;20258;-77
2021/01/13 10:29:45;;;;;;;11.13;7.37;;;1.60;14.30;;;;;;4907136;28;20224;-76
2021/01/13 10:32:08;;;;;;;17.10;10.53;;;1.50;18.40;;;;;;4918005;28;20270;-76
2021/01/13 10:34:30;;;;;;;16.13;9.57;;;1.50;19.50;;;;;;4907661;28;20250;-76
2021/01/13 10:36:53;;;;;;;14.93;9.93;;;1.50;17.70;;;;;;4899676;28;20219;-75
2021/01/13 10:39:18;;;;;;;16.27;9.20;;;1.40;18.80;;;;;;4897984;28;20184;-75
2021/01/13 10:41:42;;;;;;;19.57;9.93;;;1.40;24.70;;;;;;4897677;28;20242;-76
2021/01/13 10:44:07;;;;;;;21.93;10.60;;;1.40;25.20;;;;;;4914118;28;20261;-79
2021/01/13 10:46:46;;;;;;;20.33;11.10;;;1.30;23.60;;;;;;4910392;28;20561;-76
2021/01/13 10:49:18;;;;;;;24.97;12.43;;;1.30;26.10;;;;;;4897244;28;20662;-75
2021/01/13 10:51:47;;;;;;;25.40;13.40;;;1.20;28.40;;;;;;4912636;28;20200;-75
2021/01/13 10:54:10;;;;;;;25.67;12.83;;;1.20;28.50;;;;;;4916922;28;20196;-75
2021/01/13 10:56:34;;;;;;;24.17;12.07;;;1.20;34.80;;;;;;4917687;28;20269;-76
2021/01/13 10:59:01;;;;;;;24.70;12.03;;;1.10;38.40;;;;;;4917116;28;20829;-74
2021/01/13 11:01:27;;;;;;;18.60;10.77;;;1.10;43.60;;;;;;4896709;28;20192;-75
2021/01/13 11:03:52;;;;;;;19.03;11.30;;;1.00;47.40;;;;;;4902056;28;21462;-75
2021/01/13 11:06:22;;;;;;;19.47;10.73;;;0.90;52.30;;;;;;4917029;28;20203;-74
2021/01/13 11:08:45;;;;;;;19.53;10.87;;;0.80;59.60;;;;;;4917257;28;20605;-74
2021/01/13 11:11:08;;;;;;;18.97;10.30;;;0.80;68.80;;;;;;4907135;28;20200;-75
2021/01/13 11:13:30;;;;;;;17.43;9.90;;;0.80;76.90;;;;;;4901322;28;20618;-75
2021/01/13 11:15:53;;;;;;;16.73;9.83;;;0.80;84.50;;;;;;4910380;28;20665;-75
2021/01/13 11:18:15;;;;;;;13.90;9.13;;;0.90;90.10;;;;;;4905689;28;20613;-74
2021/01/13 11:20:40;;;;;;;15.27;8.43;;;0.90;85.60;;;;;;4902055;28;20659;-74
2021/01/13 11:23:02;;;;;;;16.20;10.90;;;1.00;82.80;;;;;;4897642;28;20598;-74
2021/01/13 11:25:27;;;;;;;19.93;11.43;;;1.00;78.90;;;;;;4899584;28;20261;-73
2021/01/13 11:27:55;;;;;;;18.83;11.27;;;1.10;85.60;;;;;;4899290;28;20671;-75
2021/01/13 11:30:18;;;;;;;15.87;9.03;;;1.10;86.80;;;;;;4913570;28;20227;-73
2021/01/13 11:32:43;;;;;;;15.30;9.13;;;1.20;82.10;;;;;;4898898;28;20637;-74
2021/01/13 11:35:06;;;;;;;15.30;9.77;;;1.30;80.60;;;;;;4899394;28;20605;-74
2021/01/13 11:37:52;;;;;;;18.03;9.80;;;1.40;88.00;;;;;;4897298;28;20961;-75
2021/01/13 11:40:40;;;;;;;17.97;10.00;;;1.50;75.80;;;;;;4900261;28;20614;-76
2021/01/13 11:43:52;;;;;;;17.07;10.20;;;1.50;72.20;;;;;;4896354;28;21209;-75
2021/01/13 11:46:16;;;;;;;15.93;9.50;;;1.60;71.50;;;;;;4901187;28;20625;-74
2021/01/13 11:49:02;;;;;;;14.57;8.67;;;1.60;65.00;;;;;;4901851;28;21157;-75
2021/01/13 11:51:27;;;;;;;14.37;8.27;;;1.60;69.10;;;;;;4905697;28;20584;-75
2021/01/13 11:53:51;;;;;;;15.90;9.23;;;1.80;78.70;;;;;;4911705;28;20674;-73
2021/01/13 11:56:13;;;;;;;14.43;9.47;;;1.90;78.90;;;;;;4904277;28;21025;-73
2021/01/13 11:58:35;;;;;;;15.17;9.27;;;1.90;59.80;;;;;;4913296;28;20618;-75
2021/01/13 12:00:57;;;;;;;15.77;10.40;;;1.80;60.70;;;;;;4896346;28;20181;-75
2021/01/13 12:03:20;;;;;;;13.53;8.87;;;1.70;53.90;;;;;;4909927;28;20211;-73
2021/01/13 12:05:42;;;;;;;15.27;8.70;;;1.60;54.60;;;;;;4901887;28;20733;-74
2021/01/13 12:08:05;;;;;;;13.37;9.27;;;1.40;55.90;;;;;;4892708;28;20221;-75
2021/01/13 12:10:33;;;;;;;15.30;9.67;;;1.30;63.80;;;;;;4902768;28;21136;-79
2021/01/13 12:13:12;;;;;;;13.83;8.70;;;1.20;74.10;;;;;;4881252;28;20649;-74
2021/01/13 12:15:46;;;;;;;14.87;8.80;;;1.10;85.20;;;;;;4898794;28;21200;-73
2021/01/13 12:18:12;;;;;;;14.03;9.57;;;1.00;87.80;;;;;;4905840;28;20608;-74
2021/01/13 12:20:34;;;;;;;17.73;10.40;;;0.90;92.40;;;;;;4906252;28;20277;-74
2021/01/13 12:22:56;;;;;;;18.00;9.93;;;1.00;93.00;;;;;;4897332;28;20651;-75
2021/01/13 12:25:24;;;;;;;15.47;9.90;;;1.00;95.60;;;;;;4898077;28;20653;-73
2021/01/13 12:27:48;;;;;;;16.80;10.23;;;0.90;97.20;;;;;;4909323;28;20608;-75
2021/01/13 12:30:12;;;;;;;16.60;10.27;;;1.00;99.70;;;;;;4914954;28;20632;-76
2021/01/13 12:32:34;;;;;;;15.13;9.73;;;1.00;99.90;;;;;;4905681;28;20621;-73
2021/01/13 12:34:57;;;;;;;16.23;10.67;;;1.00;98.30;;;;;;4913274;28;20674;-74
2021/01/13 12:37:19;;;;;;;15.87;10.27;;;0.90;98.80;;;;;;4905122;28;20622;-73
2021/01/13 12:39:42;;;;;;;15.67;9.97;;;0.80;99.90;;;;;;4896141;28;21446;-75
2021/01/13 12:42:05;;;;;;;13.57;8.47;;;0.90;99.90;;;;;;4897258;28;20614;-73
2021/01/13 12:44:29;;;;;;;12.77;8.73;;;1.00;99.90;;;;;;4907138;28;20644;-73
2021/01/13 12:46:53;;;;;;;12.77;9.50;;;1.10;99.90;;;;;;4900735;28;20185;-74
2021/01/13 12:49:15;;;;;;;17.63;9.67;;;1.00;99.90;;;;;;4900148;28;20214;-75